sensor_id;sensor_type;location;lat;lon;timestamp;temperature;humidity
15203;DHT22;7702;51.046;5.184;2023-03-01T00:02:01;-0.70;99.90
15203;DHT22;7702;51.046;5.184;2023-03-01T00:04:27;-0.80;99.90
15203;DHT22;7702;51.046;5.184;2023-03-01T00:06:53;-0.80;99.90
15203;DHT22;7702;51.046;5.184;2023-03-01T00:09:19;-0.90;99.90
15203;DHT22;7702;51.046;5.184;2023-03-01T00:11:45;-0.80;99.90
15203;DHT22;7702;51.046;5.184;2023-03-01T00:14:11;-0.90;99.90
15203;DHT22;7702;51.046;5.184;2023-03-01T00:16:39;-0.90;99.90
15203;DHT22;7702;51.046;5.184;2023-03-01T00:19:07;-0.90;99.90
15203;DHT22;7702;51.046;5.184;2023-03-01T00:21:34;-0.90;99.90
15203;DHT22;7702;51.046;5.184;2023-03-01T00:24:01;-0.90;99.90
15203;DHT22;7702;51.046;5.184;2023-03-01T00:26:27;-0.90;99.90
15203;DHT22;7702;51.046;5.184;2023-03-01T00:28:53;-1.00;99.90
15203;DHT22;7702;51.046;5.184;2023-03-01T00:31:24;-1.00;99.90
15203;DHT22;7702;51.046;5.184;2023-03-01T00:33:53;-1.10;99.90
15203;DHT22;7702;51.046;5.184;2023-03-01T00:36:23;-1.10;99.90
15203;DHT22;7702;51.046;5.184;2023-03-01T00:38:49;-1.00;99.90
15203;DHT22;7702;51.046;5.184;2023-03-01T00:41:17;-1.00;99.90
15203;DHT22;7702;51.046;5.184;2023-03-01T00:43:45;-1.10;99.90
15203;DHT22;7702;51.046;5.184;2023-03-01T00:46:14;-1.10;99.90
15203;DHT22;7702;51.046;5.184;2023-03-01T00:48:40;-1.10;99.90
15203;DHT22;7702;51.046;5.184;2023-03-01T00:53:32;-1.10;99.90
15203;DHT22;7702;51.046;5.184;2023-03-01T00:55:58;-1.10;99.90
15203;DHT22;7702;51.046;5.184;2023-03-01T00:58:24;-1.20;99.90
15203;DHT22;7702;51.046;5.184;2023-03-01T01:00:50;-1.20;99.90
15203;DHT22;7702;51.046;5.184;2023-03-01T01:03:16;-1.20;99.90
15203;DHT22;7702;51.046;5.184;2023-03-01T01:05:42;-1.20;99.90
15203;DHT22;7702;51.046;5.184;2023-03-01T01:08:07;-1.10;99.90
15203;DHT22;7702;51.046;5.184;2023-03-01T01:10:34;-1.10;99.90
15203;DHT22;7702;51.046;5.184;2023-03-01T01:13:00;-1.10;99.90
15203;DHT22;7702;51.046;5.184;2023-03-01T01:15:26;-1.10;99.90
15203;DHT22;7702;51.046;5.184;2023-03-01T01:17:52;-1.20;99.90
15203;DHT22;7702;51.046;5.184;2023-03-01T01:20:18;-1.20;99.90
15203;DHT22;7702;51.046;5.184;2023-03-01T01:22:44;-1.30;99.90
15203;DHT22;7702;51.046;5.184;2023-03-01T01:25:10;-1.20;99.90
15203;DHT22;7702;51.046;5.184;2023-03-01T01:27:36;-1.30;99.90
15203;DHT22;7702;51.046;5.184;2023-03-01T01:30:03;-1.30;99.90
15203;DHT22;7702;51.046;5.184;2023-03-01T01:32:29;-1.30;99.90
15203;DHT22;7702;51.046;5.184;2023-03-01T01:34:55;-1.30;99.90
15203;DHT22;7702;51.046;5.184;2023-03-01T01:37:21;-1.40;99.90
15203;DHT22;7702;51.046;5.184;2023-03-01T01:39:47;-1.40;99.90
15203;DHT22;7702;51.046;5.184;2023-03-01T01:42:17;-1.50;99.90
15203;DHT22;7702;51.046;5.184;2023-03-01T01:44:46;-1.60;99.90
15203;DHT22;7702;51.046;5.184;2023-03-01T01:47:17;-1.60;99.90
15203;DHT22;7702;51.046;5.184;2023-03-01T01:49:56;-1.50;99.90
15203;DHT22;7702;51.046;5.184;2023-03-01T01:52:29;-1.50;99.90
15203;DHT22;7702;51.046;5.184;2023-03-01T01:55:07;-1.60;99.90
15203;DHT22;7702;51.046;5.184;2023-03-01T01:57:41;-1.60;99.90
15203;DHT22;7702;51.046;5.184;2023-03-01T02:00:12;-1.60;99.90
15203;DHT22;7702;51.046;5.184;2023-03-01T02:02:39;-1.70;99.90
15203;DHT22;7702;51.046;5.184;2023-03-01T02:05:11;-1.70;99.90
15203;DHT22;7702;51.046;5.184;2023-03-01T02:07:39;-1.80;99.90
15203;DHT22;7702;51.046;5.184;2023-03-01T02:10:06;-1.80;99.90
15203;DHT22;7702;51.046;5.184;2023-03-01T02:12:32;-1.80;99.90
15203;DHT22;7702;51.046;5.184;2023-03-01T02:14:59;-1.80;99.90
15203;DHT22;7702;51.046;5.184;2023-03-01T02:17:25;-1.90;99.90
15203;DHT22;7702;51.046;5.184;2023-03-01T02:20:22;-1.90;99.90
15203;DHT22;7702;51.046;5.184;2023-03-01T02:22:50;-1.90;99.90
15203;DHT22;7702;51.046;5.184;2023-03-01T02:25:21;-2.00;99.90
15203;DHT22;7702;51.046;5.184;2023-03-01T02:30:47;-2.00;99.90
15203;DHT22;7702;51.046;5.184;2023-03-01T02:33:34;-2.00;99.90
15203;DHT22;7702;51.046;5.184;2023-03-01T02:36:04;-2.00;99.90
15203;DHT22;7702;51.046;5.184;2023-03-01T02:38:32;-2.00;99.90
15203;DHT22;7702;51.046;5.184;2023-03-01T02:40:58;-2.10;99.90
15203;DHT22;7702;51.046;5.184;2023-03-01T02:43:29;-2.10;99.90
15203;DHT22;7702;51.046;5.184;2023-03-01T02:45:59;-2.20;99.90
15203;DHT22;7702;51.046;5.184;2023-03-01T02:48:25;-2.20;99.90
15203;DHT22;7702;51.046;5.184;2023-03-01T02:51:10;-2.30;99.90
15203;DHT22;7702;51.046;5.184;2023-03-01T02:56:19;-2.40;99.90
15203;DHT22;7702;51.046;5.184;2023-03-01T02:58:45;-2.40;99.90
15203;DHT22;7702;51.046;5.184;2023-03-01T03:01:13;-2.40;99.90
15203;DHT22;7702;51.046;5.184;2023-03-01T03:03:41;-2.40;99.90
15203;DHT22;7702;51.046;5.184;2023-03-01T03:06:07;-2.40;99.90
15203;DHT22;7702;51.046;5.184;2023-03-01T03:08:33;-2.30;99.90
15203;DHT22;7702;51.046;5.184;2023-03-01T03:10:58;-2.30;99.90
15203;DHT22;7702;51.046;5.184;2023-03-01T03:13:24;-2.30;99.90
15203;DHT22;7702;51.046;5.184;2023-03-01T03:15:54;-2.20;99.90
15203;DHT22;7702;51.046;5.184;2023-03-01T03:18:21;-2.20;99.90
15203;DHT22;7702;51.046;5.184;2023-03-01T03:20:48;-2.20;99.90
15203;DHT22;7702;51.046;5.184;2023-03-01T03:23:19;-2.30;99.90
15203;DHT22;7702;51.046;5.184;2023-03-01T03:25:44;-2.30;99.90
15203;DHT22;7702;51.046;5.184;2023-03-01T03:28:12;-2.30;99.90
15203;DHT22;7702;51.046;5.184;2023-03-01T03:30:40;-2.30;99.90
15203;DHT22;7702;51.046;5.184;2023-03-01T03:33:06;-2.20;99.90
15203;DHT22;7702;51.046;5.184;2023-03-01T03:35:46;-2.20;99.90
15203;DHT22;7702;51.046;5.184;2023-03-01T03:38:13;-2.20;99.90
15203;DHT22;7702;51.046;5.184;2023-03-01T03:43:15;-2.20;99.90
15203;DHT22;7702;51.046;5.184;2023-03-01T03:45:41;-2.10;99.90
15203;DHT22;7702;51.046;5.184;2023-03-01T03:48:08;-2.10;99.90
15203;DHT22;7702;51.046;5.184;2023-03-01T03:50:39;-2.10;99.90
15203;DHT22;7702;51.046;5.184;2023-03-01T03:53:10;-2.10;99.90
15203;DHT22;7702;51.046;5.184;2023-03-01T03:55:36;-2.10;99.90
15203;DHT22;7702;51.046;5.184;2023-03-01T03:58:06;-2.20;99.90
15203;DHT22;7702;51.046;5.184;2023-03-01T04:00:39;-2.10;99.90
15203;DHT22;7702;51.046;5.184;2023-03-01T04:03:06;-2.20;99.90
15203;DHT22;7702;51.046;5.184;2023-03-01T04:05:32;-2.20;99.90
15203;DHT22;7702;51.046;5.184;2023-03-01T04:07:58;-2.30;99.90
15203;DHT22;7702;51.046;5.184;2023-03-01T04:10:33;-2.30;99.90
15203;DHT22;7702;51.046;5.184;2023-03-01T04:12:59;-2.30;99.90
15203;DHT22;7702;51.046;5.184;2023-03-01T04:15:25;-2.20;99.90
15203;DHT22;7702;51.046;5.184;2023-03-01T04:17:53;-2.20;99.90
15203;DHT22;7702;51.046;5.184;2023-03-01T04:20:22;-2.20;99.90
15203;DHT22;7702;51.046;5.184;2023-03-01T04:23:18;-2.30;99.90
15203;DHT22;7702;51.046;5.184;2023-03-01T04:28:41;-2.20;99.90
15203;DHT22;7702;51.046;5.184;2023-03-01T04:31:13;-2.30;99.90
15203;DHT22;7702;51.046;5.184;2023-03-01T04:33:41;-2.30;99.90
15203;DHT22;7702;51.046;5.184;2023-03-01T04:36:08;-2.40;99.90
15203;DHT22;7702;51.046;5.184;2023-03-01T04:38:35;-2.40;99.90
15203;DHT22;7702;51.046;5.184;2023-03-01T04:41:03;-2.30;99.90
15203;DHT22;7702;51.046;5.184;2023-03-01T04:43:29;-2.30;99.90
15203;DHT22;7702;51.046;5.184;2023-03-01T04:46:03;-2.40;99.90
15203;DHT22;7702;51.046;5.184;2023-03-01T04:48:30;-2.40;99.90
15203;DHT22;7702;51.046;5.184;2023-03-01T04:50:58;-2.40;99.90
15203;DHT22;7702;51.046;5.184;2023-03-01T04:53:27;-2.40;99.90
15203;DHT22;7702;51.046;5.184;2023-03-01T04:55:56;-2.50;99.90
15203;DHT22;7702;51.046;5.184;2023-03-01T04:58:23;-2.50;99.90
15203;DHT22;7702;51.046;5.184;2023-03-01T05:00:49;-2.50;99.90
15203;DHT22;7702;51.046;5.184;2023-03-01T05:03:15;-2.50;99.90
15203;DHT22;7702;51.046;5.184;2023-03-01T05:05:44;-2.50;99.90
15203;DHT22;7702;51.046;5.184;2023-03-01T05:08:11;-2.50;99.90
15203;DHT22;7702;51.046;5.184;2023-03-01T05:10:50;-2.50;99.90
15203;DHT22;7702;51.046;5.184;2023-03-01T05:13:17;-2.50;99.90
15203;DHT22;7702;51.046;5.184;2023-03-01T05:15:58;-2.60;99.90
15203;DHT22;7702;51.046;5.184;2023-03-01T05:18:25;-2.50;99.90
15203;DHT22;7702;51.046;5.184;2023-03-01T05:20:54;-2.50;99.90
15203;DHT22;7702;51.046;5.184;2023-03-01T05:23:22;-2.50;99.90
15203;DHT22;7702;51.046;5.184;2023-03-01T05:25:47;-2.50;99.90
15203;DHT22;7702;51.046;5.184;2023-03-01T05:28:14;-2.50;99.90
15203;DHT22;7702;51.046;5.184;2023-03-01T05:30:41;-2.60;99.90
15203;DHT22;7702;51.046;5.184;2023-03-01T05:33:07;-2.60;99.90
15203;DHT22;7702;51.046;5.184;2023-03-01T05:35:40;-2.60;99.90
15203;DHT22;7702;51.046;5.184;2023-03-01T05:38:06;-2.70;99.90
15203;DHT22;7702;51.046;5.184;2023-03-01T05:40:33;-2.60;99.90
15203;DHT22;7702;51.046;5.184;2023-03-01T05:42:59;-2.60;99.90
15203;DHT22;7702;51.046;5.184;2023-03-01T05:45:26;-2.50;99.90
15203;DHT22;7702;51.046;5.184;2023-03-01T05:47:52;-2.60;99.90
15203;DHT22;7702;51.046;5.184;2023-03-01T05:50:26;-2.50;99.90
15203;DHT22;7702;51.046;5.184;2023-03-01T05:53:05;-2.50;99.90
15203;DHT22;7702;51.046;5.184;2023-03-01T05:55:32;-2.60;99.90
15203;DHT22;7702;51.046;5.184;2023-03-01T05:58:00;-2.60;99.90
15203;DHT22;7702;51.046;5.184;2023-03-01T06:00:26;-2.60;99.90
15203;DHT22;7702;51.046;5.184;2023-03-01T06:02:54;-2.50;99.90
15203;DHT22;7702;51.046;5.184;2023-03-01T06:05:20;-2.60;99.90
15203;DHT22;7702;51.046;5.184;2023-03-01T06:07:46;-2.60;99.90
15203;DHT22;7702;51.046;5.184;2023-03-01T06:10:13;-2.60;99.90
15203;DHT22;7702;51.046;5.184;2023-03-01T06:12:40;-2.60;99.90
15203;DHT22;7702;51.046;5.184;2023-03-01T06:15:07;-2.70;99.90
15203;DHT22;7702;51.046;5.184;2023-03-01T06:17:36;-2.70;99.90
15203;DHT22;7702;51.046;5.184;2023-03-01T06:20:07;-2.70;99.90
15203;DHT22;7702;51.046;5.184;2023-03-01T06:22:33;-2.70;99.90
15203;DHT22;7702;51.046;5.184;2023-03-01T06:24:59;-2.80;99.90
15203;DHT22;7702;51.046;5.184;2023-03-01T06:27:25;-2.80;99.90
15203;DHT22;7702;51.046;5.184;2023-03-01T06:29:51;-2.80;99.90
15203;DHT22;7702;51.046;5.184;2023-03-01T06:32:16;-2.80;99.90
15203;DHT22;7702;51.046;5.184;2023-03-01T06:34:42;-2.80;99.90
15203;DHT22;7702;51.046;5.184;2023-03-01T06:37:08;-2.80;99.90
15203;DHT22;7702;51.046;5.184;2023-03-01T06:39:34;-2.80;99.90
15203;DHT22;7702;51.046;5.184;2023-03-01T06:42:00;-2.80;99.90
15203;DHT22;7702;51.046;5.184;2023-03-01T06:44:26;-2.80;99.90
15203;DHT22;7702;51.046;5.184;2023-03-01T06:46:52;-2.80;99.90
15203;DHT22;7702;51.046;5.184;2023-03-01T06:49:19;-2.80;99.90
15203;DHT22;7702;51.046;5.184;2023-03-01T06:51:45;-2.80;99.90
15203;DHT22;7702;51.046;5.184;2023-03-01T06:54:11;-2.90;99.90
15203;DHT22;7702;51.046;5.184;2023-03-01T06:56:37;-2.80;99.90
15203;DHT22;7702;51.046;5.184;2023-03-01T06:59:03;-2.80;99.90
15203;DHT22;7702;51.046;5.184;2023-03-01T07:01:29;-2.70;99.90
15203;DHT22;7702;51.046;5.184;2023-03-01T07:03:55;-2.70;99.90
15203;DHT22;7702;51.046;5.184;2023-03-01T07:06:21;-2.60;99.90
15203;DHT22;7702;51.046;5.184;2023-03-01T07:08:47;-2.50;99.90
15203;DHT22;7702;51.046;5.184;2023-03-01T07:11:13;-2.40;99.90
15203;DHT22;7702;51.046;5.184;2023-03-01T07:13:39;-2.30;99.90
15203;DHT22;7702;51.046;5.184;2023-03-01T07:16:05;-2.20;99.90
15203;DHT22;7702;51.046;5.184;2023-03-01T07:18:31;-2.10;99.90
15203;DHT22;7702;51.046;5.184;2023-03-01T07:20:57;-1.90;99.90
15203;DHT22;7702;51.046;5.184;2023-03-01T07:23:23;-1.80;99.90
15203;DHT22;7702;51.046;5.184;2023-03-01T07:25:53;-1.70;99.90
15203;DHT22;7702;51.046;5.184;2023-03-01T07:28:19;-1.60;99.90
15203;DHT22;7702;51.046;5.184;2023-03-01T07:30:44;-1.40;99.90
15203;DHT22;7702;51.046;5.184;2023-03-01T07:33:10;-1.30;99.90
15203;DHT22;7702;51.046;5.184;2023-03-01T07:35:36;-1.30;99.90
15203;DHT22;7702;51.046;5.184;2023-03-01T07:38:02;-1.20;99.90
15203;DHT22;7702;51.046;5.184;2023-03-01T07:40:27;-1.10;99.90
15203;DHT22;7702;51.046;5.184;2023-03-01T07:42:57;-1.10;99.90
15203;DHT22;7702;51.046;5.184;2023-03-01T07:45:24;-1.00;99.90
15203;DHT22;7702;51.046;5.184;2023-03-01T07:47:51;-0.90;99.90
15203;DHT22;7702;51.046;5.184;2023-03-01T07:50:17;-0.80;99.90
15203;DHT22;7702;51.046;5.184;2023-03-01T07:52:46;-0.70;99.90
15203;DHT22;7702;51.046;5.184;2023-03-01T07:55:12;-0.60;99.90
15203;DHT22;7702;51.046;5.184;2023-03-01T07:57:38;-0.40;99.90
15203;DHT22;7702;51.046;5.184;2023-03-01T08:00:04;-0.30;99.90
15203;DHT22;7702;51.046;5.184;2023-03-01T08:02:31;-0.20;99.90
15203;DHT22;7702;51.046;5.184;2023-03-01T08:04:56;0.00;99.90
15203;DHT22;7702;51.046;5.184;2023-03-01T08:07:22;0.10;99.90
15203;DHT22;7702;51.046;5.184;2023-03-01T08:09:48;0.30;99.90
15203;DHT22;7702;51.046;5.184;2023-03-01T08:12:14;0.50;99.90
15203;DHT22;7702;51.046;5.184;2023-03-01T08:14:41;0.60;99.90
15203;DHT22;7702;51.046;5.184;2023-03-01T08:17:07;0.80;99.90
15203;DHT22;7702;51.046;5.184;2023-03-01T08:19:33;1.00;99.90
15203;DHT22;7702;51.046;5.184;2023-03-01T08:22:03;1.10;99.90
15203;DHT22;7702;51.046;5.184;2023-03-01T08:24:29;1.30;99.90
15203;DHT22;7702;51.046;5.184;2023-03-01T08:26:55;1.40;99.90
15203;DHT22;7702;51.046;5.184;2023-03-01T08:29:21;1.50;99.90
15203;DHT22;7702;51.046;5.184;2023-03-01T08:31:48;1.70;99.90
15203;DHT22;7702;51.046;5.184;2023-03-01T08:34:15;1.80;99.90
15203;DHT22;7702;51.046;5.184;2023-03-01T08:36:44;2.00;99.90
15203;DHT22;7702;51.046;5.184;2023-03-01T08:39:12;2.30;99.90
15203;DHT22;7702;51.046;5.184;2023-03-01T08:41:38;2.60;99.90
15203;DHT22;7702;51.046;5.184;2023-03-01T08:44:05;2.80;99.90
15203;DHT22;7702;51.046;5.184;2023-03-01T08:46:33;3.00;99.90
15203;DHT22;7702;51.046;5.184;2023-03-01T08:48:59;3.30;99.90
15203;DHT22;7702;51.046;5.184;2023-03-01T08:51:26;3.50;99.90
15203;DHT22;7702;51.046;5.184;2023-03-01T08:53:52;3.60;99.90
15203;DHT22;7702;51.046;5.184;2023-03-01T08:56:18;3.70;99.90
15203;DHT22;7702;51.046;5.184;2023-03-01T08:58:46;3.70;99.90
15203;DHT22;7702;51.046;5.184;2023-03-01T09:01:14;4.00;99.90
15203;DHT22;7702;51.046;5.184;2023-03-01T09:03:40;4.20;99.90
15203;DHT22;7702;51.046;5.184;2023-03-01T09:06:07;4.30;99.90
15203;DHT22;7702;51.046;5.184;2023-03-01T09:08:41;4.40;99.90
15203;DHT22;7702;51.046;5.184;2023-03-01T09:11:09;4.50;99.90
15203;DHT22;7702;51.046;5.184;2023-03-01T09:13:35;4.70;99.90
15203;DHT22;7702;51.046;5.184;2023-03-01T09:16:03;4.90;99.90
15203;DHT22;7702;51.046;5.184;2023-03-01T09:18:30;4.90;99.90
15203;DHT22;7702;51.046;5.184;2023-03-01T09:21:10;5.00;99.90
15203;DHT22;7702;51.046;5.184;2023-03-01T09:23:42;5.10;99.90
15203;DHT22;7702;51.046;5.184;2023-03-01T09:26:10;5.20;99.90
15203;DHT22;7702;51.046;5.184;2023-03-01T09:28:37;5.20;99.90
15203;DHT22;7702;51.046;5.184;2023-03-01T09:31:04;5.30;99.90
15203;DHT22;7702;51.046;5.184;2023-03-01T09:33:31;5.60;99.90
15203;DHT22;7702;51.046;5.184;2023-03-01T09:36:03;5.60;99.90
15203;DHT22;7702;51.046;5.184;2023-03-01T09:38:29;5.30;99.90
15203;DHT22;7702;51.046;5.184;2023-03-01T09:40:55;5.30;99.90
15203;DHT22;7702;51.046;5.184;2023-03-01T09:45:54;5.40;99.90
15203;DHT22;7702;51.046;5.184;2023-03-01T09:48:23;5.40;99.90
15203;DHT22;7702;51.046;5.184;2023-03-01T09:50:51;5.50;99.90
15203;DHT22;7702;51.046;5.184;2023-03-01T09:53:23;5.30;99.90
15203;DHT22;7702;51.046;5.184;2023-03-01T10:09:47;6.30;99.90
15203;DHT22;7702;51.046;5.184;2023-03-01T10:12:37;6.50;99.90
15203;DHT22;7702;51.046;5.184;2023-03-01T10:15:16;6.70;99.90
15203;DHT22;7702;51.046;5.184;2023-03-01T10:17:55;6.50;99.90
15203;DHT22;7702;51.046;5.184;2023-03-01T10:20:24;6.50;99.90
15203;DHT22;7702;51.046;5.184;2023-03-01T10:22:51;6.60;99.90
15203;DHT22;7702;51.046;5.184;2023-03-01T10:28:20;7.00;99.90
15203;DHT22;7702;51.046;5.184;2023-03-01T10:30:50;7.10;99.90
15203;DHT22;7702;51.046;5.184;2023-03-01T10:33:26;7.20;99.90
15203;DHT22;7702;51.046;5.184;2023-03-01T10:35:53;7.10;99.90
15203;DHT22;7702;51.046;5.184;2023-03-01T10:38:19;7.30;99.90
15203;DHT22;7702;51.046;5.184;2023-03-01T10:41:00;7.70;99.90
15203;DHT22;7702;51.046;5.184;2023-03-01T10:43:50;7.80;99.90
15203;DHT22;7702;51.046;5.184;2023-03-01T10:46:31;7.70;99.90
15203;DHT22;7702;51.046;5.184;2023-03-01T10:49:20;7.80;99.90
15203;DHT22;7702;51.046;5.184;2023-03-01T10:51:49;7.90;99.90
15203;DHT22;7702;51.046;5.184;2023-03-01T10:56:54;7.80;99.90
15203;DHT22;7702;51.046;5.184;2023-03-01T10:59:33;7.80;99.90
15203;DHT22;7702;51.046;5.184;2023-03-01T11:02:20;7.80;99.90
15203;DHT22;7702;51.046;5.184;2023-03-01T11:04:58;7.60;99.90
15203;DHT22;7702;51.046;5.184;2023-03-01T11:07:26;7.60;99.90
15203;DHT22;7702;51.046;5.184;2023-03-01T11:09:52;7.60;99.90
15203;DHT22;7702;51.046;5.184;2023-03-01T11:12:18;7.90;99.90
15203;DHT22;7702;51.046;5.184;2023-03-01T11:14:54;8.10;99.90
15203;DHT22;7702;51.046;5.184;2023-03-01T11:17:30;8.00;99.90
15203;DHT22;7702;51.046;5.184;2023-03-01T11:20:15;8.10;99.90
15203;DHT22;7702;51.046;5.184;2023-03-01T11:22:51;8.10;99.90
15203;DHT22;7702;51.046;5.184;2023-03-01T11:25:20;7.90;99.90
15203;DHT22;7702;51.046;5.184;2023-03-01T11:27:49;7.80;99.90
15203;DHT22;7702;51.046;5.184;2023-03-01T11:30:25;7.80;99.90
15203;DHT22;7702;51.046;5.184;2023-03-01T11:35:36;7.80;99.90
15203;DHT22;7702;51.046;5.184;2023-03-01T11:38:20;7.70;99.90
15203;DHT22;7702;51.046;5.184;2023-03-01T11:40:54;7.80;99.90
15203;DHT22;7702;51.046;5.184;2023-03-01T11:46:31;8.10;99.90
15203;DHT22;7702;51.046;5.184;2023-03-01T12:00:04;8.20;99.90
15203;DHT22;7702;51.046;5.184;2023-03-01T12:03:42;8.30;99.90
15203;DHT22;7702;51.046;5.184;2023-03-01T12:21:28;8.50;97.70
15203;DHT22;7702;51.046;5.184;2023-03-01T12:39:02;7.40;99.30
15203;DHT22;7702;51.046;5.184;2023-03-01T12:43:58;7.20;99.90
15203;DHT22;7702;51.046;5.184;2023-03-01T12:51:54;7.20;99.90
15203;DHT22;7702;51.046;5.184;2023-03-01T12:54:30;7.20;99.90
15203;DHT22;7702;51.046;5.184;2023-03-01T12:56:59;7.20;99.90
15203;DHT22;7702;51.046;5.184;2023-03-01T12:59:31;7.30;99.90
15203;DHT22;7702;51.046;5.184;2023-03-01T13:05:29;7.10;99.90
15203;DHT22;7702;51.046;5.184;2023-03-01T13:08:39;7.20;99.90
15203;DHT22;7702;51.046;5.184;2023-03-01T13:11:19;7.20;99.90
15203;DHT22;7702;51.046;5.184;2023-03-01T13:13:46;7.30;99.90
15203;DHT22;7702;51.046;5.184;2023-03-01T13:21:40;7.20;99.90
15203;DHT22;7702;51.046;5.184;2023-03-01T13:24:25;7.10;99.90
15203;DHT22;7702;51.046;5.184;2023-03-01T13:29:53;7.20;99.90
15203;DHT22;7702;51.046;5.184;2023-03-01T13:34:47;7.10;99.90
15203;DHT22;7702;51.046;5.184;2023-03-01T13:37:22;7.10;99.90
15203;DHT22;7702;51.046;5.184;2023-03-01T13:39:48;7.10;99.90
15203;DHT22;7702;51.046;5.184;2023-03-01T13:42:35;7.00;99.90
15203;DHT22;7702;51.046;5.184;2023-03-01T13:47:41;7.00;99.90
15203;DHT22;7702;51.046;5.184;2023-03-01T13:50:20;7.00;99.90
15203;DHT22;7702;51.046;5.184;2023-03-01T13:57:44;7.30;99.90
15203;DHT22;7702;51.046;5.184;2023-03-01T14:03:00;7.10;99.90
15203;DHT22;7702;51.046;5.184;2023-03-01T14:05:26;7.10;99.90
15203;DHT22;7702;51.046;5.184;2023-03-01T14:07:52;7.20;99.90
15203;DHT22;7702;51.046;5.184;2023-03-01T14:10:18;7.20;99.90
15203;DHT22;7702;51.046;5.184;2023-03-01T14:12:55;7.30;99.90
15203;DHT22;7702;51.046;5.184;2023-03-01T14:15:35;7.20;99.90
15203;DHT22;7702;51.046;5.184;2023-03-01T14:20:44;7.20;99.90
15203;DHT22;7702;51.046;5.184;2023-03-01T14:23:22;7.20;99.90
15203;DHT22;7702;51.046;5.184;2023-03-01T14:25:49;7.20;99.90
15203;DHT22;7702;51.046;5.184;2023-03-01T14:28:21;7.20;99.90
15203;DHT22;7702;51.046;5.184;2023-03-01T14:30:50;7.10;99.90
15203;DHT22;7702;51.046;5.184;2023-03-01T14:33:31;7.20;99.90
15203;DHT22;7702;51.046;5.184;2023-03-01T14:36:05;7.10;99.90
15203;DHT22;7702;51.046;5.184;2023-03-01T14:41:07;7.00;99.90
15203;DHT22;7702;51.046;5.184;2023-03-01T14:43:33;7.00;99.90
15203;DHT22;7702;51.046;5.184;2023-03-01T14:46:00;7.10;99.90
15203;DHT22;7702;51.046;5.184;2023-03-01T14:48:28;7.10;99.90
15203;DHT22;7702;51.046;5.184;2023-03-01T14:50:54;7.00;99.90
15203;DHT22;7702;51.046;5.184;2023-03-01T14:53:26;7.10;99.90
15203;DHT22;7702;51.046;5.184;2023-03-01T14:56:01;7.20;99.90
15203;DHT22;7702;51.046;5.184;2023-03-01T14:58:32;7.10;99.90
15203;DHT22;7702;51.046;5.184;2023-03-01T15:01:00;7.10;99.90
15203;DHT22;7702;51.046;5.184;2023-03-01T15:06:01;7.10;99.90
15203;DHT22;7702;51.046;5.184;2023-03-01T15:08:28;7.10;99.90
15203;DHT22;7702;51.046;5.184;2023-03-01T15:13:35;7.20;99.90
15203;DHT22;7702;51.046;5.184;2023-03-01T15:16:12;7.30;99.90
15203;DHT22;7702;51.046;5.184;2023-03-01T15:21:30;7.30;99.90
15203;DHT22;7702;51.046;5.184;2023-03-01T15:26:55;7.10;99.90
15203;DHT22;7702;51.046;5.184;2023-03-01T15:29:25;7.10;99.90
15203;DHT22;7702;51.046;5.184;2023-03-01T15:34:38;7.10;99.90
15203;DHT22;7702;51.046;5.184;2023-03-01T15:37:15;7.10;99.90
15203;DHT22;7702;51.046;5.184;2023-03-01T15:39:57;7.20;99.90
15203;DHT22;7702;51.046;5.184;2023-03-01T15:47:40;7.40;99.90
15203;DHT22;7702;51.046;5.184;2023-03-01T15:50:19;7.50;99.90
15203;DHT22;7702;51.046;5.184;2023-03-01T15:52:46;8.10;99.60
15203;DHT22;7702;51.046;5.184;2023-03-01T15:57:42;9.60;95.90
15203;DHT22;7702;51.046;5.184;2023-03-01T16:00:12;10.30;93.80
15203;DHT22;7702;51.046;5.184;2023-03-01T16:02:43;11.10;90.90
15203;DHT22;7702;51.046;5.184;2023-03-01T16:05:21;11.60;91.50
15203;DHT22;7702;51.046;5.184;2023-03-01T16:07:48;12.00;83.50
15203;DHT22;7702;51.046;5.184;2023-03-01T16:10:15;12.00;80.90
15203;DHT22;7702;51.046;5.184;2023-03-01T16:12:41;12.00;83.90
15203;DHT22;7702;51.046;5.184;2023-03-01T16:15:18;12.10;81.80
15203;DHT22;7702;51.046;5.184;2023-03-01T16:17:44;12.10;83.10
15203;DHT22;7702;51.046;5.184;2023-03-01T16:20:10;11.90;79.00
15203;DHT22;7702;51.046;5.184;2023-03-01T16:22:36;11.00;80.00
15203;DHT22;7702;51.046;5.184;2023-03-01T16:25:02;10.00;83.10
15203;DHT22;7702;51.046;5.184;2023-03-01T16:27:28;9.40;89.20
15203;DHT22;7702;51.046;5.184;2023-03-01T16:29:53;8.90;91.80
15203;DHT22;7702;51.046;5.184;2023-03-01T16:32:19;8.40;93.20
15203;DHT22;7702;51.046;5.184;2023-03-01T16:34:45;8.00;95.60
15203;DHT22;7702;51.046;5.184;2023-03-01T16:37:14;7.70;97.00
15203;DHT22;7702;51.046;5.184;2023-03-01T16:39:40;7.30;99.50
15203;DHT22;7702;51.046;5.184;2023-03-01T16:42:06;7.10;99.80
15203;DHT22;7702;51.046;5.184;2023-03-01T16:44:32;6.90;99.90
15203;DHT22;7702;51.046;5.184;2023-03-01T16:46:58;6.70;99.90
15203;DHT22;7702;51.046;5.184;2023-03-01T16:49:23;6.50;99.90
15203;DHT22;7702;51.046;5.184;2023-03-01T16:51:49;6.40;99.90
15203;DHT22;7702;51.046;5.184;2023-03-01T16:54:15;6.30;99.90
15203;DHT22;7702;51.046;5.184;2023-03-01T16:56:40;6.20;99.90
15203;DHT22;7702;51.046;5.184;2023-03-01T16:59:06;6.10;99.90
15203;DHT22;7702;51.046;5.184;2023-03-01T17:01:32;6.00;99.90
15203;DHT22;7702;51.046;5.184;2023-03-01T17:04:03;5.90;99.90
15203;DHT22;7702;51.046;5.184;2023-03-01T17:06:29;5.80;99.90
15203;DHT22;7702;51.046;5.184;2023-03-01T17:08:56;5.70;99.90
15203;DHT22;7702;51.046;5.184;2023-03-01T17:11:22;5.70;99.90
15203;DHT22;7702;51.046;5.184;2023-03-01T17:13:47;5.60;99.90
15203;DHT22;7702;51.046;5.184;2023-03-01T17:16:16;5.50;99.90
15203;DHT22;7702;51.046;5.184;2023-03-01T17:18:42;5.50;99.90
15203;DHT22;7702;51.046;5.184;2023-03-01T17:21:08;5.40;99.90
15203;DHT22;7702;51.046;5.184;2023-03-01T17:23:36;5.30;99.90
15203;DHT22;7702;51.046;5.184;2023-03-01T17:26:02;5.30;99.90
15203;DHT22;7702;51.046;5.184;2023-03-01T17:28:30;5.20;99.90
15203;DHT22;7702;51.046;5.184;2023-03-01T17:31:01;5.10;99.90
15203;DHT22;7702;51.046;5.184;2023-03-01T17:33:27;5.10;99.90
15203;DHT22;7702;51.046;5.184;2023-03-01T17:35:57;5.00;99.90
15203;DHT22;7702;51.046;5.184;2023-03-01T17:38:23;4.90;99.90
15203;DHT22;7702;51.046;5.184;2023-03-01T17:40:48;4.90;99.90
15203;DHT22;7702;51.046;5.184;2023-03-01T17:43:16;4.80;99.90
15203;DHT22;7702;51.046;5.184;2023-03-01T17:45:43;4.70;99.90
15203;DHT22;7702;51.046;5.184;2023-03-01T17:48:13;4.70;99.90
15203;DHT22;7702;51.046;5.184;2023-03-01T17:50:38;4.60;99.90
15203;DHT22;7702;51.046;5.184;2023-03-01T17:53:07;4.60;99.90
15203;DHT22;7702;51.046;5.184;2023-03-01T17:55:35;4.50;99.90
15203;DHT22;7702;51.046;5.184;2023-03-01T17:58:02;4.50;99.90
15203;DHT22;7702;51.046;5.184;2023-03-01T18:00:27;4.60;99.90
15203;DHT22;7702;51.046;5.184;2023-03-01T18:02:54;4.60;99.90
15203;DHT22;7702;51.046;5.184;2023-03-01T18:05:20;4.50;99.90
15203;DHT22;7702;51.046;5.184;2023-03-01T18:07:45;4.40;99.90
15203;DHT22;7702;51.046;5.184;2023-03-01T18:10:11;4.40;99.90
15203;DHT22;7702;51.046;5.184;2023-03-01T18:12:37;4.20;99.90
15203;DHT22;7702;51.046;5.184;2023-03-01T18:15:04;4.10;99.90
15203;DHT22;7702;51.046;5.184;2023-03-01T18:17:30;4.10;99.90
15203;DHT22;7702;51.046;5.184;2023-03-01T18:19:56;4.00;99.90
15203;DHT22;7702;51.046;5.184;2023-03-01T18:22:26;3.80;99.90
15203;DHT22;7702;51.046;5.184;2023-03-01T18:24:52;3.80;99.90
15203;DHT22;7702;51.046;5.184;2023-03-01T18:27:17;3.70;99.90
15203;DHT22;7702;51.046;5.184;2023-03-01T18:29:43;3.60;99.90